Time;durP1;ratioP1;P1;durP2;ratioP2;P2;SDS_P1;SDS_P2;PMS_P1;PMS_P2;Temp;Humidity;BMP_temperature;BMP_pressure;BME280_temperature;BME280_humidity;BME280_pressure;Samples;Min_cycle;Max_cycle;Signal;HPM_P1;HPM_P2
2023/11/22 02:17:13;;;;;;;31.60;19.30;;;;;;;-1.85;99.14;99025.14;436281;1254;97995;-39
2023/11/22 02:27:18;;;;;;;22.60;16.10;;;;;;;-1.85;98.99;99030.39;435411;1253;99149;-38
2023/11/22 02:47:26;;;;;;;28.50;17.90;;;;;;;-1.93;99.10;99038.14;435356;1250;99316;-41
2023/11/22 02:57:29;;;;;;;22.70;15.20;;;;;;;-1.94;98.93;99049.19;435450;1249;99237;-40
2023/11/22 03:07:33;;;;;;;28.60;17.20;;;;;;;-1.81;98.85;99060.11;435424;1249;107479;-39
2023/11/22 03:27:40;;;;;;;26.40;18.10;;;;;;;-1.83;98.74;99103.97;435420;1254;97976;-40
2023/11/22 03:37:44;;;;;;;26.60;15.00;;;;;;;-1.74;98.57;99118.41;435301;1251;109173;-39
2023/11/22 03:57:51;;;;;;;34.70;19.50;;;;;;;-1.81;98.33;99160.73;435459;1250;108415;-38
2023/11/22 04:17:58;;;;;;;24.80;16.80;;;;;;;-1.84;97.86;99191.38;435251;1250;110899;-38
2023/11/22 04:28:01;;;;;;;31.90;19.70;;;;;;;-1.84;97.94;99217.64;435410;1250;108447;-39
2023/11/22 04:38:05;;;;;;;34.30;18.90;;;;;;;-2.08;97.29;99248.07;435448;1254;98909;-39
2023/11/22 04:48:09;;;;;;;27.30;16.70;;;;;;;-2.09;97.33;99259.77;435221;1249;108530;-40
2023/11/22 04:58:13;;;;;;;32.30;20.40;;;;;;;-2.14;97.07;99270.22;435356;1254;99333;-40
2023/11/22 05:08:16;;;;;;;31.40;19.50;;;;;;;-2.24;96.85;99284.54;435386;1254;112065;-39
2023/11/22 05:18:21;;;;;;;29.90;18.20;;;;;;;-2.14;97.05;99290.92;435306;1250;108654;-39
2023/11/22 05:28:24;;;;;;;40.50;23.90;;;;;;;-2.08;97.09;99293.15;435496;1250;99111;-39
2023/11/22 05:38:28;;;;;;;41.30;20.10;;;;;;;-2.17;97.01;99313.08;435435;1253;108251;-39
2023/11/22 05:48:31;;;;;;;33.20;18.70;;;;;;;-2.13;96.51;99330.91;435312;1250;99221;-40
2023/11/22 06:08:40;;;;;;;39.00;23.10;;;;;;;-2.07;96.74;99358.39;435315;1254;107547;-38
2023/11/22 06:18:44;;;;;;;44.50;26.40;;;;;;;-2.14;96.84;99370.06;435561;1254;98709;-40
2023/11/22 06:28:49;;;;;;;37.10;22.30;;;;;;;-2.11;96.42;99383.45;435384;1253;98011;-40
2023/11/22 06:38:52;;;;;;;34.50;22.80;;;;;;;-2.02;96.32;99390.95;435314;1250;108134;-39
2023/11/22 06:48:56;;;;;;;44.90;25.90;;;;;;;-1.99;96.65;99392.58;435435;1249;99236;-39
2023/11/22 06:59:00;;;;;;;46.80;26.90;;;;;;;-2.11;96.42;99414.04;435268;1250;99240;-40
2023/11/22 07:09:04;;;;;;;37.70;23.20;;;;;;;-2.05;96.25;99432.85;435308;1256;107556;-40
2023/11/22 07:19:07;;;;;;;36.60;23.20;;;;;;;-1.96;96.20;99441.73;435358;1250;98284;-40
2023/11/22 07:59:21;;;;;;;45.20;26.20;;;;;;;-1.86;96.14;99474.43;435324;1250;108191;-39
2023/11/22 08:09:24;;;;;;;45.90;25.80;;;;;;;-1.92;96.20;99487.71;435270;1253;98482;-39
2023/11/22 08:19:28;;;;;;;34.30;20.80;;;;;;;-2.05;95.88;99492.07;435337;1250;98840;-40
2023/11/22 08:29:32;;;;;;;32.00;21.50;;;;;;;-1.92;95.95;99502.58;435402;1250;108479;-41
2023/11/22 08:39:35;;;;;;;33.20;20.20;;;;;;;-1.89;96.15;99515.09;435425;1254;99253;-40
2023/11/22 08:49:40;;;;;;;41.60;25.20;;;;;;;-1.86;96.35;99520.21;435452;1254;99201;-38
2023/11/22 08:59:44;;;;;;;26.80;17.70;;;;;;;-1.84;95.94;99526.25;435426;1253;107357;-40
2023/11/22 09:09:47;;;;;;;31.10;18.50;;;;;;;-1.74;95.74;99526.67;435380;1250;99240;-40
2023/11/22 09:19:50;;;;;;;37.70;20.10;;;;;;;-1.88;95.41;99532.13;435286;1254;109573;-39
2023/11/22 09:29:54;;;;;;;24.90;15.50;;;;;;;-1.84;95.75;99559.78;435305;1250;99206;-39
2023/11/22 09:39:57;;;;;;;26.60;18.40;;;;;;;-1.65;95.59;99570.84;435325;1250;110315;-40
2023/11/22 09:50:04;;;;;;;28.00;18.60;;;;;;;-1.58;95.60;99572.48;435285;1253;107314;-39
2023/11/22 10:00:13;;;;;;;35.70;19.70;;;;;;;-1.69;95.39;99556.47;435266;1250;97996;-40
2023/11/22 10:10:22;;;;;;;22.50;16.50;;;;;;;-1.71;95.08;99537.39;435467;1254;110234;-43
2023/11/22 10:30:30;;;;;;;31.50;17.40;;;;;;;-1.65;95.18;99537.26;435422;1254;99976;-40
2023/11/22 10:40:33;;;;;;;29.50;18.40;;;;;;;-1.63;95.49;99552.83;435385;1254;99230;-39
2023/11/22 10:50:40;;;;;;;32.70;19.70;;;;;;;-1.60;95.47;99571.27;435296;1250;107448;-40
2023/11/22 11:00:46;;;;;;;23.80;15.00;;;;;;;-1.60;95.18;99577.26;435331;1253;99185;-39
2023/11/22 11:10:50;;;;;;;18.70;14.40;;;;;;;-1.59;94.80;99590.14;435266;1250;108002;-39
2023/11/22 11:20:56;;;;;;;25.20;15.50;;;;;;;-1.56;94.91;99599.27;435346;1256;99244;-40
2023/11/22 11:31:00;;;;;;;27.90;16.40;;;;;;;-1.44;95.12;99594.25;435418;1254;111834;-39
2023/11/22 12:11:22;;;;;;;21.70;12.50;;;;;;;-0.69;94.58;99596.60;435245;1250;108693;-43
2023/11/22 12:21:31;;;;;;;36.00;20.90;;;;;;;-0.69;94.30;99604.56;435390;1255;98803;-42
2023/11/22 12:31:35;;;;;;;43.20;23.30;;;;;;;-0.83;94.00;99622.13;435408;1250;111192;-43
2023/11/22 12:41:43;;;;;;;35.40;20.80;;;;;;;-1.15;93.29;99603.60;435126;1255;459015;-43
2023/11/22 13:01:52;;;;;;;31.10;18.60;;;;;;;-1.47;93.39;99593.87;435360;1250;112330;-41
2023/11/22 13:11:56;;;;;;;21.00;13.40;;;;;;;-1.34;93.38;99601.86;435250;1250;107681;-40
2023/11/22 13:21:59;;;;;;;16.40;10.90;;;;;;;-1.08;93.07;99619.36;435301;1250;98344;-43
2023/11/22 13:32:02;;;;;;;25.00;14.30;;;;;;;-0.97;93.10;99631.23;435235;1255;107869;-42
2023/11/22 13:42:06;;;;;;;29.70;13.70;;;;;;;-0.97;92.89;99622.05;435391;1255;98081;-43
2023/11/22 13:52:09;;;;;;;31.30;17.50;;;;;;;-1.03;92.54;99645.83;435337;1255;111150;-43
2023/11/22 14:02:12;;;;;;;26.60;14.30;;;;;;;-1.11;92.65;99679.14;435307;1256;99333;-43
2023/11/22 14:12:18;;;;;;;21.00;11.00;;;;;;;-1.20;92.39;99673.36;435527;1250;99215;-43
2023/11/22 14:22:21;;;;;;;16.90;9.10;;;;;;;-1.31;92.18;99676.84;435481;1254;111846;-43
2023/11/22 14:42:27;;;;;;;15.40;10.40;;;;;;;-1.48;91.67;99645.61;435402;1254;98378;-40
2023/11/22 14:52:30;;;;;;;15.00;10.30;;;;;;;-1.51;91.61;99638.09;435339;1253;106316;-40
2023/11/22 15:12:39;;;;;;;16.70;10.20;;;;;;;-1.44;91.47;99631.61;435439;1255;111733;-39
2023/11/22 15:22:43;;;;;;;19.90;12.90;;;;;;;-1.38;91.72;99660.21;435518;1254;107819;-39
2023/11/22 15:42:51;;;;;;;30.10;15.80;;;;;;;-1.38;91.69;99647.00;435385;1256;108429;-39
2023/11/22 15:52:54;;;;;;;18.50;11.80;;;;;;;-1.49;91.54;99653.44;435249;1256;99269;-39
2023/11/22 16:02:58;;;;;;;21.60;13.40;;;;;;;-1.65;90.93;99616.06;435350;1263;110966;-40
2023/11/22 16:13:02;;;;;;;28.00;15.50;;;;;;;-1.72;90.99;99604.58;435439;1253;107586;-43
2023/11/22 16:23:06;;;;;;;41.00;20.70;;;;;;;-1.75;90.88;99618.50;435277;1251;99460;-42
2023/11/22 16:33:09;;;;;;;22.80;13.50;;;;;;;-1.69;90.94;99610.39;435217;1254;108267;-40
2023/11/22 16:43:13;;;;;;;25.10;13.50;;;;;;;-1.58;90.85;99625.69;435469;1251;97969;-40
2023/11/22 16:53:17;;;;;;;63.40;30.20;;;;;;;-1.51;91.17;99658.65;435374;1255;111768;-40
2023/11/22 17:03:20;;;;;;;93.90;47.50;;;;;;;-1.50;91.28;99683.83;435471;1251;98824;-39
2023/11/22 17:13:28;;;;;;;65.90;34.50;;;;;;;-1.61;91.03;99696.34;435357;1253;99240;-39
2023/11/22 17:33:35;;;;;;;44.40;24.60;;;;;;;-1.77;91.07;99665.30;435336;1255;99207;-40
2023/11/22 17:43:38;;;;;;;51.00;27.50;;;;;;;-1.81;90.91;99661.84;435403;1254;101477;-39
2023/11/22 17:53:41;;;;;;;38.40;22.60;;;;;;;-1.81;90.88;99676.71;435277;1253;112097;-38
2023/11/22 18:03:45;;;;;;;47.70;23.60;;;;;;;-1.69;90.61;99680.06;435441;1253;108367;-39
2023/11/22 18:23:53;;;;;;;101.50;44.30;;;;;;;-1.63;90.85;99690.28;435430;1255;99340;-39
2023/11/22 18:33:57;;;;;;;64.40;33.00;;;;;;;-1.85;90.58;99654.73;435358;1257;108689;-39
2023/11/22 18:44:01;;;;;;;84.40;35.70;;;;;;;-2.08;90.40;99629.69;435289;1254;98820;-39
2023/11/22 18:54:20;;;;;;;65.40;32.90;;;;;;;-2.27;90.18;99618.98;435367;1263;112451;-40
2023/11/22 19:24:31;;;;;;;58.80;30.20;;;;;;;-2.39;89.73;99616.69;435446;1250;107883;-39
2023/11/22 19:34:34;;;;;;;61.20;30.40;;;;;;;-2.50;89.93;99619.09;435311;1251;97999;-40
2023/11/22 19:44:39;;;;;;;65.40;34.40;;;;;;;-2.62;89.76;99618.52;435504;1250;112085;-42
2023/11/22 20:04:45;;;;;;;74.80;38.10;;;;;;;-2.86;89.77;99590.86;435215;1253;99330;-39
2023/11/22 20:14:49;;;;;;;60.20;31.30;;;;;;;-2.86;89.65;99582.23;435344;1254;108284;-39
2023/11/22 20:24:52;;;;;;;54.10;29.30;;;;;;;-2.76;89.68;99580.45;435493;1251;97974;-39
2023/11/22 20:34:56;;;;;;;58.60;32.70;;;;;;;-2.69;89.52;99556.92;435552;1254;112353;-40
2023/11/22 20:44:59;;;;;;;66.90;36.50;;;;;;;-2.75;89.64;99518.95;435470;1254;99231;-40
2023/11/22 20:55:08;;;;;;;67.40;36.70;;;;;;;-2.83;89.68;99494.52;435437;1254;99230;-39
2023/11/22 21:15:15;;;;;;;62.70;33.40;;;;;;;-2.87;89.56;99473.63;435329;1249;106056;-40
2023/11/22 21:35:22;;;;;;;56.80;28.60;;;;;;;-2.74;89.55;99453.31;435305;1254;108352;-43
2023/11/22 21:45:26;;;;;;;50.00;28.10;;;;;;;-2.81;89.66;99444.49;435276;1254;98014;-40
2023/11/22 21:55:29;;;;;;;49.40;25.50;;;;;;;-2.88;89.65;99439.77;435547;1253;111412;-39
2023/11/22 22:05:33;;;;;;;44.80;24.20;;;;;;;-3.01;89.54;99407.52;435411;1250;107948;-40
2023/11/22 22:35:43;;;;;;;56.70;31.70;;;;;;;-2.70;89.76;99389.77;435413;1254;98620;-39
2023/11/22 22:45:47;;;;;;;47.30;25.90;;;;;;;-2.66;89.58;99381.48;435464;1249;110236;-40
2023/11/22 22:55:51;;;;;;;47.20;26.40;;;;;;;-2.73;89.63;99364.48;435537;1250;107243;-41
2023/11/22 23:05:55;;;;;;;32.70;18.50;;;;;;;-2.73;89.41;99346.73;435439;1253;99279;-39
2023/11/22 23:15:58;;;;;;;27.60;16.40;;;;;;;-2.70;89.37;99319.58;435468;1250;107678;-39
2023/11/22 23:26:02;;;;;;;39.40;22.80;;;;;;;-2.73;89.58;99293.38;435459;1254;120016;-40
2023/11/22 23:36:08;;;;;;;44.90;24.60;;;;;;;-2.67;89.74;99285.94;435418;1254;112154;-39
2023/11/22 23:46:12;;;;;;;35.20;19.60;;;;;;;-2.58;89.90;99271.23;435349;1250;107692;-38
2023/11/22 23:56:16;;;;;;;35.30;19.50;;;;;;;-2.44;89.43;99255.02;435379;1254;99707;-40
